Terminal Aerodrome Forecast
Issued by NWS Charleston, WV

Current Version | Previous Version | Text Only | Print | Product List | Glossary Off
Versions: 1 2 3 4 5 6 7 8 9 10 11 12 13 14 15 16 17 18 19 20 21 22 23 24 25 26 27 28

519
FTUS41 KRLX 220303 AAA
TAFPKB
TAF AMD
KPKB 220303Z 2203/2224 00000KT P6SM BKN080
     FM220900 00000KT 4SM BR BKN250
     FM221000 00000KT 1SM BR SCT001 BKN250
     FM221300 VRB03KT P6SM BKN250
     FM221700 10005KT P6SM OVC070
     FM222000 09006KT P6SM -RA BKN040
     FM222200 09006KT 6SM -RA OVC025=

USA.gov is the U.S. government's official web portal to all federal, state and local government web resources and services.